sensor_id;sensor_type;location;lat;lon;timestamp;P1;durP1;ratioP1;P2;durP2;ratioP2
13197;SDS011;6664;52.514;13.440;2024-02-28T00:01:05;12.60;;;6.50;;
13197;SDS011;6664;52.514;13.440;2024-02-28T00:03:51;16.70;;;6.23;;
13197;SDS011;6664;52.514;13.440;2024-02-28T00:06:37;12.50;;;6.87;;
13197;SDS011;6664;52.514;13.440;2024-02-28T00:09:23;12.47;;;6.50;;
13197;SDS011;6664;52.514;13.440;2024-02-28T00:12:11;11.70;;;5.93;;
13197;SDS011;6664;52.514;13.440;2024-02-28T00:14:57;11.00;;;5.80;;
13197;SDS011;6664;52.514;13.440;2024-02-28T00:17:43;13.20;;;7.70;;
13197;SDS011;6664;52.514;13.440;2024-02-28T00:20:29;13.47;;;7.43;;
13197;SDS011;6664;52.514;13.440;2024-02-28T00:23:15;12.07;;;6.00;;
13197;SDS011;6664;52.514;13.440;2024-02-28T00:26:03;13.63;;;7.70;;
13197;SDS011;6664;52.514;13.440;2024-02-28T00:28:49;15.77;;;6.97;;
13197;SDS011;6664;52.514;13.440;2024-02-28T00:31:36;11.40;;;5.17;;
13197;SDS011;6664;52.514;13.440;2024-02-28T00:34:22;14.77;;;6.90;;
13197;SDS011;6664;52.514;13.440;2024-02-28T00:37:08;16.97;;;7.90;;
13197;SDS011;6664;52.514;13.440;2024-02-28T00:39:54;11.03;;;6.30;;
13197;SDS011;6664;52.514;13.440;2024-02-28T00:42:39;11.30;;;6.53;;
13197;SDS011;6664;52.514;13.440;2024-02-28T00:45:26;9.90;;;6.03;;
13197;SDS011;6664;52.514;13.440;2024-02-28T00:48:14;10.00;;;6.23;;
13197;SDS011;6664;52.514;13.440;2024-02-28T00:50:59;12.43;;;6.83;;
13197;SDS011;6664;52.514;13.440;2024-02-28T00:53:45;14.73;;;7.33;;
13197;SDS011;6664;52.514;13.440;2024-02-28T00:56:30;14.50;;;6.97;;
13197;SDS011;6664;52.514;13.440;2024-02-28T00:59:17;11.30;;;6.33;;
13197;SDS011;6664;52.514;13.440;2024-02-28T01:02:02;12.43;;;6.73;;
13197;SDS011;6664;52.514;13.440;2024-02-28T01:04:48;11.30;;;6.00;;
13197;SDS011;6664;52.514;13.440;2024-02-28T01:07:36;11.97;;;5.70;;
13197;SDS011;6664;52.514;13.440;2024-02-28T01:10:26;16.40;;;6.97;;
13197;SDS011;6664;52.514;13.440;2024-02-28T01:13:11;13.07;;;7.50;;
13197;SDS011;6664;52.514;13.440;2024-02-28T01:15:57;12.37;;;6.57;;
13197;SDS011;6664;52.514;13.440;2024-02-28T01:18:45;12.50;;;6.43;;
13197;SDS011;6664;52.514;13.440;2024-02-28T01:21:31;15.47;;;7.13;;
13197;SDS011;6664;52.514;13.440;2024-02-28T01:24:16;12.60;;;6.13;;
13197;SDS011;6664;52.514;13.440;2024-02-28T01:27:02;9.50;;;4.80;;
13197;SDS011;6664;52.514;13.440;2024-02-28T01:29:48;12.20;;;6.10;;
13197;SDS011;6664;52.514;13.440;2024-02-28T01:32:36;9.20;;;5.50;;
13197;SDS011;6664;52.514;13.440;2024-02-28T01:35:21;7.67;;;5.27;;
13197;SDS011;6664;52.514;13.440;2024-02-28T01:38:07;9.60;;;5.50;;
13197;SDS011;6664;52.514;13.440;2024-02-28T01:40:55;10.13;;;5.47;;
13197;SDS011;6664;52.514;13.440;2024-02-28T01:43:40;16.13;;;6.60;;
13197;SDS011;6664;52.514;13.440;2024-02-28T01:46:27;9.70;;;5.70;;
13197;SDS011;6664;52.514;13.440;2024-02-28T01:49:16;7.00;;;4.70;;
13197;SDS011;6664;52.514;13.440;2024-02-28T01:52:02;11.47;;;5.80;;
13197;SDS011;6664;52.514;13.440;2024-02-28T01:54:49;7.97;;;4.87;;
13197;SDS011;6664;52.514;13.440;2024-02-28T01:57:35;10.33;;;5.70;;
13197;SDS011;6664;52.514;13.440;2024-02-28T02:00:22;10.50;;;6.23;;
13197;SDS011;6664;52.514;13.440;2024-02-28T02:03:10;16.10;;;5.50;;
13197;SDS011;6664;52.514;13.440;2024-02-28T02:05:58;8.93;;;5.30;;
13197;SDS011;6664;52.514;13.440;2024-02-28T02:08:44;9.43;;;5.20;;
13197;SDS011;6664;52.514;13.440;2024-02-28T02:11:30;7.67;;;4.30;;
13197;SDS011;6664;52.514;13.440;2024-02-28T02:14:19;8.60;;;4.90;;
13197;SDS011;6664;52.514;13.440;2024-02-28T02:17:04;12.70;;;6.00;;
13197;SDS011;6664;52.514;13.440;2024-02-28T02:19:50;11.57;;;5.07;;
13197;SDS011;6664;52.514;13.440;2024-02-28T02:22:41;7.23;;;5.03;;
13197;SDS011;6664;52.514;13.440;2024-02-28T02:25:29;10.10;;;4.67;;
13197;SDS011;6664;52.514;13.440;2024-02-28T02:28:17;6.53;;;4.57;;
13197;SDS011;6664;52.514;13.440;2024-02-28T02:31:02;7.80;;;4.40;;
13197;SDS011;6664;52.514;13.440;2024-02-28T02:33:50;12.60;;;4.77;;
13197;SDS011;6664;52.514;13.440;2024-02-28T02:36:40;9.67;;;4.37;;
13197;SDS011;6664;52.514;13.440;2024-02-28T02:39:26;8.70;;;4.43;;
13197;SDS011;6664;52.514;13.440;2024-02-28T02:42:11;7.10;;;4.70;;
13197;SDS011;6664;52.514;13.440;2024-02-28T02:45:00;10.47;;;5.60;;
13197;SDS011;6664;52.514;13.440;2024-02-28T02:47:45;8.10;;;5.03;;
13197;SDS011;6664;52.514;13.440;2024-02-28T02:50:31;12.40;;;6.17;;
13197;SDS011;6664;52.514;13.440;2024-02-28T02:53:16;8.63;;;5.23;;
13197;SDS011;6664;52.514;13.440;2024-02-28T02:56:05;5.77;;;4.20;;
13197;SDS011;6664;52.514;13.440;2024-02-28T02:58:51;7.47;;;4.70;;
13197;SDS011;6664;52.514;13.440;2024-02-28T03:01:37;11.73;;;5.37;;
13197;SDS011;6664;52.514;13.440;2024-02-28T03:04:23;7.80;;;3.83;;
13197;SDS011;6664;52.514;13.440;2024-02-28T03:07:08;6.53;;;4.20;;
13197;SDS011;6664;52.514;13.440;2024-02-28T03:09:54;7.07;;;3.83;;
13197;SDS011;6664;52.514;13.440;2024-02-28T03:12:39;5.07;;;3.90;;
13197;SDS011;6664;52.514;13.440;2024-02-28T03:15:26;6.70;;;4.17;;
13197;SDS011;6664;52.514;13.440;2024-02-28T03:18:12;6.43;;;3.60;;
13197;SDS011;6664;52.514;13.440;2024-02-28T03:20:57;6.43;;;3.77;;
13197;SDS011;6664;52.514;13.440;2024-02-28T03:23:46;4.60;;;3.27;;
13197;SDS011;6664;52.514;13.440;2024-02-28T03:26:31;9.30;;;4.77;;
13197;SDS011;6664;52.514;13.440;2024-02-28T03:29:17;6.20;;;3.90;;
13197;SDS011;6664;52.514;13.440;2024-02-28T03:32:02;7.10;;;4.30;;
13197;SDS011;6664;52.514;13.440;2024-02-28T03:34:49;3.83;;;3.30;;
13197;SDS011;6664;52.514;13.440;2024-02-28T03:37:35;5.13;;;3.80;;
13197;SDS011;6664;52.514;13.440;2024-02-28T03:40:20;7.00;;;3.97;;
13197;SDS011;6664;52.514;13.440;2024-02-28T03:43:06;5.93;;;3.60;;
13197;SDS011;6664;52.514;13.440;2024-02-28T03:45:54;4.07;;;3.30;;
13197;SDS011;6664;52.514;13.440;2024-02-28T03:48:41;5.07;;;3.70;;
13197;SDS011;6664;52.514;13.440;2024-02-28T03:51:27;5.57;;;4.13;;
13197;SDS011;6664;52.514;13.440;2024-02-28T03:54:15;7.30;;;3.30;;
13197;SDS011;6664;52.514;13.440;2024-02-28T03:57:01;4.10;;;3.10;;
13197;SDS011;6664;52.514;13.440;2024-02-28T03:59:47;4.90;;;3.63;;
13197;SDS011;6664;52.514;13.440;2024-02-28T04:02:32;7.90;;;4.20;;
13197;SDS011;6664;52.514;13.440;2024-02-28T04:05:20;6.23;;;3.13;;
13197;SDS011;6664;52.514;13.440;2024-02-28T04:08:05;4.70;;;3.33;;
13197;SDS011;6664;52.514;13.440;2024-02-28T04:10:51;5.43;;;2.63;;
13197;SDS011;6664;52.514;13.440;2024-02-28T04:13:40;2.30;;;2.00;;
13197;SDS011;6664;52.514;13.440;2024-02-28T04:16:25;2.97;;;2.43;;
13197;SDS011;6664;52.514;13.440;2024-02-28T04:19:11;3.57;;;2.83;;
13197;SDS011;6664;52.514;13.440;2024-02-28T04:21:57;4.33;;;2.57;;
13197;SDS011;6664;52.514;13.440;2024-02-28T04:24:42;3.23;;;2.50;;
13197;SDS011;6664;52.514;13.440;2024-02-28T04:27:28;2.10;;;1.80;;
13197;SDS011;6664;52.514;13.440;2024-02-28T04:30:13;6.90;;;2.37;;
13197;SDS011;6664;52.514;13.440;2024-02-28T04:33:02;2.30;;;1.90;;
13197;SDS011;6664;52.514;13.440;2024-02-28T04:35:49;1.83;;;1.50;;
13197;SDS011;6664;52.514;13.440;2024-02-28T04:38:35;2.17;;;1.97;;
13197;SDS011;6664;52.514;13.440;2024-02-28T04:41:22;2.07;;;1.87;;
13197;SDS011;6664;52.514;13.440;2024-02-28T04:44:08;1.67;;;1.57;;
13197;SDS011;6664;52.514;13.440;2024-02-28T04:46:53;2.03;;;1.93;;
13197;SDS011;6664;52.514;13.440;2024-02-28T04:49:39;3.20;;;2.37;;
13197;SDS011;6664;52.514;13.440;2024-02-28T04:52:24;2.73;;;2.53;;
13197;SDS011;6664;52.514;13.440;2024-02-28T04:55:10;1.80;;;1.70;;
13197;SDS011;6664;52.514;13.440;2024-02-28T04:57:57;2.23;;;2.03;;
13197;SDS011;6664;52.514;13.440;2024-02-28T05:00:43;5.17;;;3.13;;
13197;SDS011;6664;52.514;13.440;2024-02-28T05:03:28;2.50;;;2.13;;
13197;SDS011;6664;52.514;13.440;2024-02-28T05:06:14;2.40;;;1.93;;
13197;SDS011;6664;52.514;13.440;2024-02-28T05:09:00;2.77;;;2.20;;
13197;SDS011;6664;52.514;13.440;2024-02-28T05:11:47;6.07;;;2.43;;
13197;SDS011;6664;52.514;13.440;2024-02-28T05:14:33;3.77;;;2.63;;
13197;SDS011;6664;52.514;13.440;2024-02-28T05:17:18;3.63;;;2.53;;
13197;SDS011;6664;52.514;13.440;2024-02-28T05:20:03;3.90;;;2.60;;
13197;SDS011;6664;52.514;13.440;2024-02-28T05:22:51;4.87;;;3.00;;
13197;SDS011;6664;52.514;13.440;2024-02-28T05:25:37;6.87;;;3.60;;
13197;SDS011;6664;52.514;13.440;2024-02-28T05:28:23;3.33;;;2.50;;
13197;SDS011;6664;52.514;13.440;2024-02-28T05:31:22;4.93;;;2.97;;
13197;SDS011;6664;52.514;13.440;2024-02-28T05:34:09;3.73;;;2.63;;
13197;SDS011;6664;52.514;13.440;2024-02-28T05:36:55;3.30;;;3.00;;
13197;SDS011;6664;52.514;13.440;2024-02-28T05:39:43;4.93;;;2.83;;
13197;SDS011;6664;52.514;13.440;2024-02-28T05:42:31;3.20;;;2.77;;
13197;SDS011;6664;52.514;13.440;2024-02-28T05:45:18;2.60;;;2.40;;
13197;SDS011;6664;52.514;13.440;2024-02-28T05:48:04;2.87;;;2.33;;
13197;SDS011;6664;52.514;13.440;2024-02-28T05:50:49;4.20;;;3.47;;
13197;SDS011;6664;52.514;13.440;2024-02-28T05:53:35;5.03;;;3.60;;
13197;SDS011;6664;52.514;13.440;2024-02-28T05:56:20;4.37;;;2.73;;
13197;SDS011;6664;52.514;13.440;2024-02-28T05:59:08;4.87;;;3.40;;
13197;SDS011;6664;52.514;13.440;2024-02-28T06:01:54;3.20;;;2.80;;
13197;SDS011;6664;52.514;13.440;2024-02-28T06:04:40;3.50;;;2.50;;
13197;SDS011;6664;52.514;13.440;2024-02-28T06:07:25;4.53;;;3.03;;
13197;SDS011;6664;52.514;13.440;2024-02-28T06:10:11;9.00;;;3.17;;
13197;SDS011;6664;52.514;13.440;2024-02-28T06:12:56;3.47;;;2.63;;
13197;SDS011;6664;52.514;13.440;2024-02-28T06:15:46;2.80;;;2.27;;
13197;SDS011;6664;52.514;13.440;2024-02-28T06:18:34;3.70;;;2.90;;
13197;SDS011;6664;52.514;13.440;2024-02-28T06:21:22;3.33;;;3.00;;
13197;SDS011;6664;52.514;13.440;2024-02-28T06:24:08;4.13;;;2.97;;
13197;SDS011;6664;52.514;13.440;2024-02-28T06:26:55;5.67;;;3.40;;
13197;SDS011;6664;52.514;13.440;2024-02-28T06:29:41;3.83;;;2.77;;
13197;SDS011;6664;52.514;13.440;2024-02-28T06:32:27;5.00;;;3.63;;
13197;SDS011;6664;52.514;13.440;2024-02-28T06:35:12;2.97;;;2.67;;
13197;SDS011;6664;52.514;13.440;2024-02-28T06:37:58;5.13;;;3.50;;
13197;SDS011;6664;52.514;13.440;2024-02-28T06:40:43;5.33;;;2.90;;
13197;SDS011;6664;52.514;13.440;2024-02-28T06:43:29;4.40;;;3.80;;
13197;SDS011;6664;52.514;13.440;2024-02-28T06:46:17;6.13;;;3.27;;
13197;SDS011;6664;52.514;13.440;2024-02-28T06:49:07;5.17;;;3.47;;
13197;SDS011;6664;52.514;13.440;2024-02-28T06:51:56;5.27;;;3.97;;
13197;SDS011;6664;52.514;13.440;2024-02-28T06:54:46;4.93;;;3.43;;
13197;SDS011;6664;52.514;13.440;2024-02-28T06:57:31;4.77;;;3.80;;
13197;SDS011;6664;52.514;13.440;2024-02-28T07:00:17;5.70;;;3.90;;
13197;SDS011;6664;52.514;13.440;2024-02-28T07:03:04;7.13;;;4.30;;
13197;SDS011;6664;52.514;13.440;2024-02-28T07:05:49;6.13;;;4.13;;
13197;SDS011;6664;52.514;13.440;2024-02-28T07:08:35;8.33;;;4.50;;
13197;SDS011;6664;52.514;13.440;2024-02-28T07:11:23;5.80;;;4.70;;
13197;SDS011;6664;52.514;13.440;2024-02-28T07:14:09;7.40;;;4.53;;
13197;SDS011;6664;52.514;13.440;2024-02-28T07:16:59;8.60;;;4.57;;
13197;SDS011;6664;52.514;13.440;2024-02-28T07:19:45;9.23;;;5.50;;
13197;SDS011;6664;52.514;13.440;2024-02-28T07:22:32;9.10;;;5.13;;
13197;SDS011;6664;52.514;13.440;2024-02-28T07:25:20;7.93;;;4.53;;
13197;SDS011;6664;52.514;13.440;2024-02-28T07:28:07;7.23;;;4.77;;
13197;SDS011;6664;52.514;13.440;2024-02-28T07:30:53;14.20;;;4.93;;
13197;SDS011;6664;52.514;13.440;2024-02-28T07:33:39;6.27;;;4.30;;
13197;SDS011;6664;52.514;13.440;2024-02-28T07:36:25;7.83;;;5.17;;
13197;SDS011;6664;52.514;13.440;2024-02-28T07:39:11;6.00;;;4.30;;
13197;SDS011;6664;52.514;13.440;2024-02-28T07:41:57;12.60;;;4.47;;
13197;SDS011;6664;52.514;13.440;2024-02-28T07:44:43;13.63;;;6.27;;
13197;SDS011;6664;52.514;13.440;2024-02-28T07:47:30;7.60;;;5.40;;
13197;SDS011;6664;52.514;13.440;2024-02-28T07:50:19;8.73;;;5.70;;
13197;SDS011;6664;52.514;13.440;2024-02-28T07:53:04;7.43;;;5.50;;
13197;SDS011;6664;52.514;13.440;2024-02-28T07:55:50;6.50;;;5.40;;
13197;SDS011;6664;52.514;13.440;2024-02-28T07:58:38;8.20;;;6.00;;
13197;SDS011;6664;52.514;13.440;2024-02-28T08:01:23;7.33;;;5.20;;
13197;SDS011;6664;52.514;13.440;2024-02-28T08:04:09;4.53;;;3.70;;
13197;SDS011;6664;52.514;13.440;2024-02-28T08:06:54;6.13;;;4.60;;
13197;SDS011;6664;52.514;13.440;2024-02-28T08:09:40;6.33;;;4.60;;
13197;SDS011;6664;52.514;13.440;2024-02-28T08:12:25;10.57;;;5.07;;
13197;SDS011;6664;52.514;13.440;2024-02-28T08:15:11;6.70;;;4.80;;
13197;SDS011;6664;52.514;13.440;2024-02-28T08:17:57;11.73;;;5.77;;
13197;SDS011;6664;52.514;13.440;2024-02-28T08:20:43;5.57;;;4.40;;
13197;SDS011;6664;52.514;13.440;2024-02-28T08:23:31;7.23;;;5.40;;
13197;SDS011;6664;52.514;13.440;2024-02-28T08:26:17;6.87;;;4.07;;
13197;SDS011;6664;52.514;13.440;2024-02-28T08:29:02;5.80;;;4.40;;
13197;SDS011;6664;52.514;13.440;2024-02-28T08:31:48;16.27;;;5.33;;
13197;SDS011;6664;52.514;13.440;2024-02-28T08:34:33;8.00;;;4.97;;
13197;SDS011;6664;52.514;13.440;2024-02-28T08:37:19;9.87;;;6.00;;
13197;SDS011;6664;52.514;13.440;2024-02-28T08:40:05;7.70;;;5.17;;
13197;SDS011;6664;52.514;13.440;2024-02-28T08:42:51;3.97;;;3.43;;
13197;SDS011;6664;52.514;13.440;2024-02-28T08:45:39;4.30;;;2.93;;
13197;SDS011;6664;52.514;13.440;2024-02-28T08:48:27;3.77;;;3.37;;
13197;SDS011;6664;52.514;13.440;2024-02-28T08:51:15;4.50;;;4.03;;
13197;SDS011;6664;52.514;13.440;2024-02-28T08:54:03;4.63;;;3.90;;
13197;SDS011;6664;52.514;13.440;2024-02-28T08:56:49;11.23;;;4.90;;
13197;SDS011;6664;52.514;13.440;2024-02-28T08:59:44;7.53;;;5.37;;
13197;SDS011;6664;52.514;13.440;2024-02-28T09:02:35;6.27;;;4.57;;
13197;SDS011;6664;52.514;13.440;2024-02-28T09:05:21;5.60;;;4.10;;
13197;SDS011;6664;52.514;13.440;2024-02-28T09:08:07;7.07;;;4.60;;
13197;SDS011;6664;52.514;13.440;2024-02-28T09:10:58;13.80;;;6.07;;
13197;SDS011;6664;52.514;13.440;2024-02-28T09:13:44;7.77;;;5.87;;
13197;SDS011;6664;52.514;13.440;2024-02-28T09:16:29;6.93;;;5.13;;
13197;SDS011;6664;52.514;13.440;2024-02-28T09:19:15;8.90;;;6.20;;
13197;SDS011;6664;52.514;13.440;2024-02-28T09:22:02;6.93;;;5.50;;
13197;SDS011;6664;52.514;13.440;2024-02-28T09:24:47;9.40;;;6.70;;
13197;SDS011;6664;52.514;13.440;2024-02-28T09:27:36;9.37;;;6.10;;
13197;SDS011;6664;52.514;13.440;2024-02-28T09:30:22;10.20;;;5.80;;
13197;SDS011;6664;52.514;13.440;2024-02-28T09:33:16;9.53;;;6.70;;
13197;SDS011;6664;52.514;13.440;2024-02-28T09:36:05;10.93;;;6.73;;
13197;SDS011;6664;52.514;13.440;2024-02-28T09:38:50;11.77;;;7.23;;
13197;SDS011;6664;52.514;13.440;2024-02-28T09:41:38;13.30;;;7.00;;
13197;SDS011;6664;52.514;13.440;2024-02-28T09:44:24;10.53;;;6.90;;
13197;SDS011;6664;52.514;13.440;2024-02-28T09:47:10;11.07;;;5.97;;
13197;SDS011;6664;52.514;13.440;2024-02-28T09:49:58;11.30;;;6.60;;
13197;SDS011;6664;52.514;13.440;2024-02-28T09:52:47;9.23;;;6.83;;
13197;SDS011;6664;52.514;13.440;2024-02-28T09:55:46;9.63;;;5.67;;
13197;SDS011;6664;52.514;13.440;2024-02-28T09:58:33;14.50;;;6.90;;
13197;SDS011;6664;52.514;13.440;2024-02-28T10:01:21;9.47;;;6.87;;
13197;SDS011;6664;52.514;13.440;2024-02-28T10:04:10;8.47;;;6.67;;
13197;SDS011;6664;52.514;13.440;2024-02-28T10:06:59;11.10;;;7.00;;
13197;SDS011;6664;52.514;13.440;2024-02-28T10:10:03;10.20;;;6.77;;
13197;SDS011;6664;52.514;13.440;2024-02-28T10:12:51;12.47;;;7.20;;
13197;SDS011;6664;52.514;13.440;2024-02-28T10:15:39;14.67;;;7.03;;
13197;SDS011;6664;52.514;13.440;2024-02-28T10:18:25;8.77;;;6.10;;
13197;SDS011;6664;52.514;13.440;2024-02-28T10:21:16;7.37;;;5.60;;
13197;SDS011;6664;52.514;13.440;2024-02-28T10:24:03;9.70;;;5.80;;
13197;SDS011;6664;52.514;13.440;2024-02-28T10:26:49;11.13;;;4.90;;
13197;SDS011;6664;52.514;13.440;2024-02-28T10:29:41;11.03;;;5.40;;
13197;SDS011;6664;52.514;13.440;2024-02-28T10:32:29;15.40;;;6.00;;
13197;SDS011;6664;52.514;13.440;2024-02-28T10:35:16;7.40;;;5.80;;
13197;SDS011;6664;52.514;13.440;2024-02-28T10:38:13;9.40;;;6.43;;
13197;SDS011;6664;52.514;13.440;2024-02-28T10:41:00;13.07;;;5.10;;
13197;SDS011;6664;52.514;13.440;2024-02-28T10:43:48;12.13;;;6.63;;
13197;SDS011;6664;52.514;13.440;2024-02-28T10:46:34;10.67;;;5.50;;
13197;SDS011;6664;52.514;13.440;2024-02-28T10:49:22;10.67;;;5.70;;
13197;SDS011;6664;52.514;13.440;2024-02-28T10:52:10;11.33;;;5.33;;
13197;SDS011;6664;52.514;13.440;2024-02-28T10:54:58;11.93;;;5.73;;
13197;SDS011;6664;52.514;13.440;2024-02-28T10:57:47;12.00;;;5.77;;
13197;SDS011;6664;52.514;13.440;2024-02-28T11:00:39;7.43;;;5.17;;
13197;SDS011;6664;52.514;13.440;2024-02-28T11:03:26;9.90;;;5.50;;
13197;SDS011;6664;52.514;13.440;2024-02-28T11:06:21;10.30;;;5.50;;
13197;SDS011;6664;52.514;13.440;2024-02-28T11:09:09;9.70;;;5.97;;
13197;SDS011;6664;52.514;13.440;2024-02-28T11:11:59;12.27;;;6.50;;
13197;SDS011;6664;52.514;13.440;2024-02-28T11:14:55;7.60;;;5.80;;
13197;SDS011;6664;52.514;13.440;2024-02-28T11:17:45;10.03;;;6.17;;
13197;SDS011;6664;52.514;13.440;2024-02-28T11:20:34;12.07;;;8.33;;
13197;SDS011;6664;52.514;13.440;2024-02-28T11:23:20;17.67;;;8.73;;
13197;SDS011;6664;52.514;13.440;2024-02-28T11:26:06;13.17;;;8.63;;
13197;SDS011;6664;52.514;13.440;2024-02-28T11:28:52;10.00;;;5.60;;
13197;SDS011;6664;52.514;13.440;2024-02-28T11:31:37;11.03;;;6.27;;
13197;SDS011;6664;52.514;13.440;2024-02-28T11:34:23;10.40;;;5.40;;
13197;SDS011;6664;52.514;13.440;2024-02-28T11:37:11;10.50;;;6.10;;
13197;SDS011;6664;52.514;13.440;2024-02-28T11:39:57;13.10;;;6.47;;
13197;SDS011;6664;52.514;13.440;2024-02-28T11:42:48;9.30;;;5.90;;
13197;SDS011;6664;52.514;13.440;2024-02-28T11:45:38;11.63;;;7.27;;
13197;SDS011;6664;52.514;13.440;2024-02-28T11:48:26;11.77;;;6.77;;
13197;SDS011;6664;52.514;13.440;2024-02-28T11:51:18;10.63;;;6.53;;
13197;SDS011;6664;52.514;13.440;2024-02-28T11:54:03;12.40;;;7.27;;
13197;SDS011;6664;52.514;13.440;2024-02-28T11:56:48;12.57;;;6.87;;
13197;SDS011;6664;52.514;13.440;2024-02-28T11:59:36;9.60;;;5.33;;
13197;SDS011;6664;52.514;13.440;2024-02-28T12:02:22;9.53;;;5.33;;
13197;SDS011;6664;52.514;13.440;2024-02-28T12:05:13;8.87;;;5.50;;
13197;SDS011;6664;52.514;13.440;2024-02-28T12:07:59;12.23;;;7.33;;
13197;SDS011;6664;52.514;13.440;2024-02-28T12:10:46;8.70;;;5.90;;
13197;SDS011;6664;52.514;13.440;2024-02-28T12:13:36;7.33;;;5.47;;
13197;SDS011;6664;52.514;13.440;2024-02-28T12:16:25;6.97;;;5.10;;
13197;SDS011;6664;52.514;13.440;2024-02-28T12:19:12;7.43;;;5.00;;
13197;SDS011;6664;52.514;13.440;2024-02-28T12:22:03;7.30;;;4.40;;
13197;SDS011;6664;52.514;13.440;2024-02-28T12:24:49;8.70;;;4.87;;
13197;SDS011;6664;52.514;13.440;2024-02-28T12:27:37;6.87;;;4.53;;
13197;SDS011;6664;52.514;13.440;2024-02-28T12:30:25;6.23;;;5.10;;
13197;SDS011;6664;52.514;13.440;2024-02-28T12:33:13;4.23;;;3.83;;
13197;SDS011;6664;52.514;13.440;2024-02-28T12:35:59;5.43;;;4.30;;
13197;SDS011;6664;52.514;13.440;2024-02-28T12:38:50;9.07;;;4.60;;
13197;SDS011;6664;52.514;13.440;2024-02-28T12:41:36;5.77;;;4.70;;
13197;SDS011;6664;52.514;13.440;2024-02-28T12:44:24;6.50;;;4.70;;
13197;SDS011;6664;52.514;13.440;2024-02-28T12:47:09;6.37;;;5.03;;
13197;SDS011;6664;52.514;13.440;2024-02-28T12:49:55;8.30;;;5.30;;
13197;SDS011;6664;52.514;13.440;2024-02-28T12:52:41;6.70;;;4.70;;
13197;SDS011;6664;52.514;13.440;2024-02-28T12:55:27;6.43;;;4.63;;
13197;SDS011;6664;52.514;13.440;2024-02-28T12:58:12;10.63;;;5.07;;
13197;SDS011;6664;52.514;13.440;2024-02-28T13:01:02;8.90;;;5.43;;
13197;SDS011;6664;52.514;13.440;2024-02-28T13:03:49;6.30;;;4.10;;
13197;SDS011;6664;52.514;13.440;2024-02-28T13:06:37;4.03;;;3.63;;
13197;SDS011;6664;52.514;13.440;2024-02-28T13:09:23;5.13;;;3.87;;
13197;SDS011;6664;52.514;13.440;2024-02-28T13:12:09;7.23;;;4.97;;
13197;SDS011;6664;52.514;13.440;2024-02-28T13:14:57;9.17;;;5.20;;
13197;SDS011;6664;52.514;13.440;2024-02-28T13:17:43;6.93;;;5.60;;
13197;SDS011;6664;52.514;13.440;2024-02-28T13:20:31;6.60;;;4.93;;
13197;SDS011;6664;52.514;13.440;2024-02-28T13:23:17;6.80;;;5.27;;
13197;SDS011;6664;52.514;13.440;2024-02-28T13:26:06;9.30;;;5.03;;
13197;SDS011;6664;52.514;13.440;2024-02-28T13:28:55;8.10;;;5.47;;
13197;SDS011;6664;52.514;13.440;2024-02-28T13:31:40;9.13;;;5.60;;
13197;SDS011;6664;52.514;13.440;2024-02-28T13:34:26;8.17;;;5.27;;
13197;SDS011;6664;52.514;13.440;2024-02-28T13:37:14;7.27;;;5.20;;
13197;SDS011;6664;52.514;13.440;2024-02-28T13:40:00;8.43;;;5.77;;
13197;SDS011;6664;52.514;13.440;2024-02-28T13:42:45;9.57;;;6.50;;
13197;SDS011;6664;52.514;13.440;2024-02-28T13:45:32;8.60;;;5.77;;
13197;SDS011;6664;52.514;13.440;2024-02-28T13:48:25;7.43;;;5.30;;
13197;SDS011;6664;52.514;13.440;2024-02-28T13:51:13;8.07;;;5.23;;
13197;SDS011;6664;52.514;13.440;2024-02-28T13:54:00;13.50;;;5.90;;
13197;SDS011;6664;52.514;13.440;2024-02-28T13:56:45;9.70;;;5.73;;
13197;SDS011;6664;52.514;13.440;2024-02-28T13:59:32;8.13;;;5.67;;
13197;SDS011;6664;52.514;13.440;2024-02-28T14:02:18;6.97;;;5.40;;
13197;SDS011;6664;52.514;13.440;2024-02-28T14:05:03;8.33;;;5.77;;
13197;SDS011;6664;52.514;13.440;2024-02-28T14:07:49;7.73;;;5.20;;
13197;SDS011;6664;52.514;13.440;2024-02-28T14:10:35;9.30;;;5.63;;
13197;SDS011;6664;52.514;13.440;2024-02-28T14:13:25;10.90;;;5.70;;
13197;SDS011;6664;52.514;13.440;2024-02-28T14:16:11;10.10;;;6.10;;
13197;SDS011;6664;52.514;13.440;2024-02-28T14:18:57;8.00;;;5.40;;
13197;SDS011;6664;52.514;13.440;2024-02-28T14:21:46;7.07;;;5.30;;
13197;SDS011;6664;52.514;13.440;2024-02-28T14:24:32;10.73;;;5.23;;
13197;SDS011;6664;52.514;13.440;2024-02-28T14:27:21;8.77;;;5.67;;
13197;SDS011;6664;52.514;13.440;2024-02-28T14:30:07;7.40;;;5.90;;
13197;SDS011;6664;52.514;13.440;2024-02-28T14:32:53;8.97;;;6.10;;
13197;SDS011;6664;52.514;13.440;2024-02-28T14:35:39;9.60;;;6.13;;
13197;SDS011;6664;52.514;13.440;2024-02-28T14:38:26;6.53;;;4.90;;
13197;SDS011;6664;52.514;13.440;2024-02-28T14:41:14;8.67;;;6.10;;
13197;SDS011;6664;52.514;13.440;2024-02-28T14:43:59;10.73;;;5.87;;
13197;SDS011;6664;52.514;13.440;2024-02-28T14:46:44;10.63;;;5.80;;
13197;SDS011;6664;52.514;13.440;2024-02-28T14:49:30;10.43;;;6.73;;
13197;SDS011;6664;52.514;13.440;2024-02-28T14:52:16;7.47;;;5.10;;
13197;SDS011;6664;52.514;13.440;2024-02-28T14:55:01;13.10;;;6.47;;
13197;SDS011;6664;52.514;13.440;2024-02-28T14:57:48;9.23;;;4.90;;
13197;SDS011;6664;52.514;13.440;2024-02-28T15:00:34;7.57;;;4.50;;
13197;SDS011;6664;52.514;13.440;2024-02-28T15:03:20;8.33;;;5.30;;
13197;SDS011;6664;52.514;13.440;2024-02-28T15:06:06;9.27;;;5.70;;
13197;SDS011;6664;52.514;13.440;2024-02-28T15:08:53;9.20;;;4.97;;
13197;SDS011;6664;52.514;13.440;2024-02-28T15:11:38;6.60;;;4.27;;
13197;SDS011;6664;52.514;13.440;2024-02-28T15:14:24;6.70;;;4.43;;
13197;SDS011;6664;52.514;13.440;2024-02-28T15:17:10;6.83;;;4.70;;
13197;SDS011;6664;52.514;13.440;2024-02-28T15:19:56;9.17;;;5.40;;
13197;SDS011;6664;52.514;13.440;2024-02-28T15:22:41;9.90;;;5.37;;
13197;SDS011;6664;52.514;13.440;2024-02-28T15:25:27;10.40;;;4.67;;
13197;SDS011;6664;52.514;13.440;2024-02-28T15:28:13;5.50;;;4.20;;
13197;SDS011;6664;52.514;13.440;2024-02-28T15:30:59;8.87;;;4.00;;
13197;SDS011;6664;52.514;13.440;2024-02-28T15:33:45;8.30;;;4.70;;
13197;SDS011;6664;52.514;13.440;2024-02-28T15:36:30;7.63;;;4.47;;
13197;SDS011;6664;52.514;13.440;2024-02-28T15:39:16;6.37;;;3.20;;
13197;SDS011;6664;52.514;13.440;2024-02-28T15:42:01;8.80;;;4.73;;
13197;SDS011;6664;52.514;13.440;2024-02-28T15:44:49;6.20;;;3.40;;
13197;SDS011;6664;52.514;13.440;2024-02-28T15:47:35;5.60;;;3.93;;
13197;SDS011;6664;52.514;13.440;2024-02-28T15:50:21;7.60;;;4.73;;
13197;SDS011;6664;52.514;13.440;2024-02-28T15:53:06;5.90;;;4.17;;
13197;SDS011;6664;52.514;13.440;2024-02-28T15:55:55;5.33;;;3.57;;
13197;SDS011;6664;52.514;13.440;2024-02-28T15:58:40;6.57;;;4.07;;
13197;SDS011;6664;52.514;13.440;2024-02-28T16:01:28;5.60;;;4.00;;
13197;SDS011;6664;52.514;13.440;2024-02-28T16:04:14;4.90;;;4.10;;
13197;SDS011;6664;52.514;13.440;2024-02-28T16:07:02;7.30;;;4.80;;
13197;SDS011;6664;52.514;13.440;2024-02-28T16:09:49;9.10;;;4.30;;
13197;SDS011;6664;52.514;13.440;2024-02-28T16:12:35;4.20;;;3.40;;
13197;SDS011;6664;52.514;13.440;2024-02-28T16:15:21;7.40;;;3.70;;
13197;SDS011;6664;52.514;13.440;2024-02-28T16:18:07;5.47;;;3.87;;
13197;SDS011;6664;52.514;13.440;2024-02-28T16:20:58;5.70;;;4.20;;
13197;SDS011;6664;52.514;13.440;2024-02-28T16:23:44;9.50;;;4.03;;
13197;SDS011;6664;52.514;13.440;2024-02-28T16:26:30;8.53;;;5.07;;
13197;SDS011;6664;52.514;13.440;2024-02-28T16:29:19;9.33;;;4.50;;
13197;SDS011;6664;52.514;13.440;2024-02-28T16:32:07;6.17;;;4.70;;
13197;SDS011;6664;52.514;13.440;2024-02-28T16:34:57;9.63;;;4.50;;
13197;SDS011;6664;52.514;13.440;2024-02-28T16:37:43;9.00;;;3.90;;
13197;SDS011;6664;52.514;13.440;2024-02-28T16:40:32;9.47;;;5.07;;